sensor_id;sensor_type;location;lat;lon;timestamp;P1;durP1;ratioP1;P2;durP2;ratioP2
51292;SDS011;37377;45.186;9.778;2023-04-29T00:01:59;12.00;;;7.90;;
51292;SDS011;37377;45.186;9.778;2023-04-29T00:04:26;10.95;;;8.23;;
51292;SDS011;37377;45.186;9.778;2023-04-29T00:06:54;16.90;;;9.38;;
51292;SDS011;37377;45.186;9.778;2023-04-29T00:09:22;10.73;;;8.18;;
51292;SDS011;37377;45.186;9.778;2023-04-29T00:11:49;14.52;;;7.88;;
51292;SDS011;37377;45.186;9.778;2023-04-29T00:14:17;12.85;;;8.25;;
51292;SDS011;37377;45.186;9.778;2023-04-29T00:16:45;11.40;;;8.93;;
51292;SDS011;37377;45.186;9.778;2023-04-29T00:19:12;18.70;;;9.35;;
51292;SDS011;37377;45.186;9.778;2023-04-29T00:21:39;16.25;;;9.95;;
51292;SDS011;37377;45.186;9.778;2023-04-29T00:24:07;11.52;;;9.00;;
51292;SDS011;37377;45.186;9.778;2023-04-29T00:26:35;9.45;;;8.40;;
51292;SDS011;37377;45.186;9.778;2023-04-29T00:29:01;19.10;;;10.07;;
51292;SDS011;37377;45.186;9.778;2023-04-29T00:31:29;20.42;;;9.68;;
51292;SDS011;37377;45.186;9.778;2023-04-29T00:33:58;13.38;;;9.55;;
51292;SDS011;37377;45.186;9.778;2023-04-29T00:36:25;12.85;;;9.93;;
51292;SDS011;37377;45.186;9.778;2023-04-29T00:38:54;18.83;;;10.57;;
51292;SDS011;37377;45.186;9.778;2023-04-29T00:41:21;15.55;;;10.02;;
51292;SDS011;37377;45.186;9.778;2023-04-29T00:43:48;11.50;;;10.13;;
51292;SDS011;37377;45.186;9.778;2023-04-29T00:46:15;15.15;;;10.32;;
51292;SDS011;37377;45.186;9.778;2023-04-29T00:48:43;18.65;;;10.40;;
51292;SDS011;37377;45.186;9.778;2023-04-29T00:51:10;17.38;;;9.85;;
51292;SDS011;37377;45.186;9.778;2023-04-29T00:53:38;21.95;;;10.73;;
51292;SDS011;37377;45.186;9.778;2023-04-29T00:56:05;13.35;;;9.90;;
51292;SDS011;37377;45.186;9.778;2023-04-29T00:58:34;11.48;;;9.60;;
51292;SDS011;37377;45.186;9.778;2023-04-29T01:01:02;14.80;;;10.15;;
51292;SDS011;37377;45.186;9.778;2023-04-29T01:03:30;11.30;;;10.00;;
51292;SDS011;37377;45.186;9.778;2023-04-29T01:06:03;18.67;;;10.38;;
51292;SDS011;37377;45.186;9.778;2023-04-29T01:08:38;14.35;;;10.55;;
51292;SDS011;37377;45.186;9.778;2023-04-29T01:11:08;16.13;;;10.40;;
51292;SDS011;37377;45.186;9.778;2023-04-29T01:16:10;15.13;;;10.88;;
51292;SDS011;37377;45.186;9.778;2023-04-29T01:18:42;15.00;;;10.70;;
51292;SDS011;37377;45.186;9.778;2023-04-29T01:21:15;12.65;;;10.50;;
51292;SDS011;37377;45.186;9.778;2023-04-29T01:23:42;14.52;;;10.98;;
51292;SDS011;37377;45.186;9.778;2023-04-29T01:26:12;13.98;;;10.85;;
51292;SDS011;37377;45.186;9.778;2023-04-29T01:32:04;17.85;;;12.02;;
51292;SDS011;37377;45.186;9.778;2023-04-29T01:34:41;17.63;;;12.35;;
51292;SDS011;37377;45.186;9.778;2023-04-29T01:42:20;20.60;;;13.57;;
51292;SDS011;37377;45.186;9.778;2023-04-29T01:44:50;22.55;;;13.55;;
51292;SDS011;37377;45.186;9.778;2023-04-29T01:47:20;17.55;;;12.45;;
51292;SDS011;37377;45.186;9.778;2023-04-29T01:49:51;20.75;;;13.73;;
51292;SDS011;37377;45.186;9.778;2023-04-29T01:52:18;20.88;;;12.73;;
51292;SDS011;37377;45.186;9.778;2023-04-29T01:54:55;14.75;;;11.80;;
51292;SDS011;37377;45.186;9.778;2023-04-29T01:57:25;14.75;;;11.73;;
51292;SDS011;37377;45.186;9.778;2023-04-29T02:00:28;17.58;;;12.63;;
51292;SDS011;37377;45.186;9.778;2023-04-29T02:02:55;15.82;;;12.48;;
51292;SDS011;37377;45.186;9.778;2023-04-29T02:05:35;18.05;;;12.20;;
51292;SDS011;37377;45.186;9.778;2023-04-29T02:08:03;19.20;;;12.18;;
51292;SDS011;37377;45.186;9.778;2023-04-29T02:10:37;18.27;;;12.25;;
51292;SDS011;37377;45.186;9.778;2023-04-29T02:13:27;16.00;;;12.35;;
51292;SDS011;37377;45.186;9.778;2023-04-29T02:15:55;14.43;;;11.27;;
51292;SDS011;37377;45.186;9.778;2023-04-29T02:18:22;18.73;;;11.88;;
51292;SDS011;37377;45.186;9.778;2023-04-29T02:20:49;18.48;;;12.10;;
51292;SDS011;37377;45.186;9.778;2023-04-29T02:23:17;22.42;;;12.07;;
51292;SDS011;37377;45.186;9.778;2023-04-29T02:25:44;18.42;;;12.75;;
51292;SDS011;37377;45.186;9.778;2023-04-29T02:28:14;20.77;;;13.73;;
51292;SDS011;37377;45.186;9.778;2023-04-29T02:30:45;17.55;;;13.60;;
51292;SDS011;37377;45.186;9.778;2023-04-29T02:33:12;22.48;;;13.43;;
51292;SDS011;37377;45.186;9.778;2023-04-29T02:35:42;16.13;;;13.07;;
51292;SDS011;37377;45.186;9.778;2023-04-29T02:38:09;20.85;;;13.43;;
51292;SDS011;37377;45.186;9.778;2023-04-29T02:40:41;18.63;;;13.23;;
51292;SDS011;37377;45.186;9.778;2023-04-29T02:43:08;20.63;;;14.65;;
51292;SDS011;37377;45.186;9.778;2023-04-29T02:45:36;18.23;;;14.35;;
51292;SDS011;37377;45.186;9.778;2023-04-29T02:48:03;21.73;;;16.02;;
51292;SDS011;37377;45.186;9.778;2023-04-29T02:50:31;19.98;;;14.90;;
51292;SDS011;37377;45.186;9.778;2023-04-29T02:52:59;18.35;;;15.35;;
51292;SDS011;37377;45.186;9.778;2023-04-29T02:55:26;17.50;;;15.13;;
51292;SDS011;37377;45.186;9.778;2023-04-29T02:57:58;21.33;;;15.48;;
51292;SDS011;37377;45.186;9.778;2023-04-29T03:00:25;17.17;;;14.00;;
51292;SDS011;37377;45.186;9.778;2023-04-29T03:02:52;20.95;;;14.85;;
51292;SDS011;37377;45.186;9.778;2023-04-29T03:05:22;17.85;;;14.93;;
51292;SDS011;37377;45.186;9.778;2023-04-29T03:07:49;15.70;;;14.25;;
51292;SDS011;37377;45.186;9.778;2023-04-29T03:10:17;17.63;;;14.30;;
51292;SDS011;37377;45.186;9.778;2023-04-29T03:12:45;18.27;;;15.10;;
51292;SDS011;37377;45.186;9.778;2023-04-29T03:15:12;20.13;;;14.02;;
51292;SDS011;37377;45.186;9.778;2023-04-29T03:17:40;18.33;;;14.45;;
51292;SDS011;37377;45.186;9.778;2023-04-29T03:20:07;25.38;;;13.93;;
51292;SDS011;37377;45.186;9.778;2023-04-29T03:22:36;20.10;;;15.05;;
51292;SDS011;37377;45.186;9.778;2023-04-29T03:25:03;18.65;;;14.02;;
51292;SDS011;37377;45.186;9.778;2023-04-29T03:27:31;17.63;;;13.68;;
51292;SDS011;37377;45.186;9.778;2023-04-29T03:29:58;19.67;;;15.10;;
51292;SDS011;37377;45.186;9.778;2023-04-29T03:32:37;16.02;;;14.13;;
51292;SDS011;37377;45.186;9.778;2023-04-29T03:35:12;18.02;;;14.10;;
51292;SDS011;37377;45.186;9.778;2023-04-29T03:38:07;19.52;;;14.60;;
51292;SDS011;37377;45.186;9.778;2023-04-29T03:40:36;20.80;;;13.93;;
51292;SDS011;37377;45.186;9.778;2023-04-29T03:43:04;22.08;;;14.07;;
51292;SDS011;37377;45.186;9.778;2023-04-29T03:45:31;21.38;;;14.57;;
51292;SDS011;37377;45.186;9.778;2023-04-29T03:47:59;21.48;;;15.15;;
51292;SDS011;37377;45.186;9.778;2023-04-29T03:50:29;21.35;;;15.35;;
51292;SDS011;37377;45.186;9.778;2023-04-29T03:52:57;20.05;;;15.50;;
51292;SDS011;37377;45.186;9.778;2023-04-29T03:55:24;22.85;;;14.20;;
51292;SDS011;37377;45.186;9.778;2023-04-29T03:57:52;18.02;;;14.13;;
51292;SDS011;37377;45.186;9.778;2023-04-29T04:00:20;16.88;;;14.63;;
51292;SDS011;37377;45.186;9.778;2023-04-29T04:02:52;18.95;;;14.60;;
51292;SDS011;37377;45.186;9.778;2023-04-29T04:05:22;17.90;;;15.02;;
51292;SDS011;37377;45.186;9.778;2023-04-29T04:07:57;17.98;;;16.08;;
51292;SDS011;37377;45.186;9.778;2023-04-29T04:10:47;22.55;;;15.43;;
51292;SDS011;37377;45.186;9.778;2023-04-29T04:13:30;18.60;;;15.57;;
51292;SDS011;37377;45.186;9.778;2023-04-29T04:15:57;22.63;;;16.08;;
51292;SDS011;37377;45.186;9.778;2023-04-29T04:18:25;20.70;;;16.38;;
51292;SDS011;37377;45.186;9.778;2023-04-29T04:20:55;22.90;;;16.55;;
51292;SDS011;37377;45.186;9.778;2023-04-29T04:23:24;22.00;;;16.08;;
51292;SDS011;37377;45.186;9.778;2023-04-29T04:25:53;25.83;;;16.40;;
51292;SDS011;37377;45.186;9.778;2023-04-29T04:28:39;22.35;;;17.67;;
51292;SDS011;37377;45.186;9.778;2023-04-29T04:31:12;25.23;;;16.90;;
51292;SDS011;37377;45.186;9.778;2023-04-29T04:33:43;21.92;;;16.65;;
51292;SDS011;37377;45.186;9.778;2023-04-29T04:36:11;18.65;;;16.65;;
51292;SDS011;37377;45.186;9.778;2023-04-29T04:38:39;28.08;;;17.48;;
51292;SDS011;37377;45.186;9.778;2023-04-29T04:41:10;23.65;;;16.90;;
51292;SDS011;37377;45.186;9.778;2023-04-29T04:43:38;22.92;;;17.27;;
51292;SDS011;37377;45.186;9.778;2023-04-29T04:46:14;22.20;;;18.10;;
51292;SDS011;37377;45.186;9.778;2023-04-29T04:48:54;22.38;;;17.58;;
51292;SDS011;37377;45.186;9.778;2023-04-29T04:51:21;22.13;;;16.90;;
51292;SDS011;37377;45.186;9.778;2023-04-29T04:53:49;38.00;;;20.08;;
51292;SDS011;37377;45.186;9.778;2023-04-29T04:56:21;28.88;;;18.00;;
51292;SDS011;37377;45.186;9.778;2023-04-29T04:58:51;25.65;;;17.95;;
51292;SDS011;37377;45.186;9.778;2023-04-29T05:01:19;29.48;;;17.60;;
51292;SDS011;37377;45.186;9.778;2023-04-29T05:03:46;23.35;;;17.65;;
51292;SDS011;37377;45.186;9.778;2023-04-29T05:06:13;24.33;;;18.65;;
51292;SDS011;37377;45.186;9.778;2023-04-29T05:08:44;28.92;;;21.05;;
51292;SDS011;37377;45.186;9.778;2023-04-29T05:11:16;24.42;;;21.10;;
51292;SDS011;37377;45.186;9.778;2023-04-29T05:13:50;22.33;;;17.20;;
51292;SDS011;37377;45.186;9.778;2023-04-29T05:16:20;29.52;;;19.33;;
51292;SDS011;37377;45.186;9.778;2023-04-29T05:18:47;33.28;;;20.50;;
51292;SDS011;37377;45.186;9.778;2023-04-29T05:21:15;28.67;;;20.58;;
51292;SDS011;37377;45.186;9.778;2023-04-29T05:23:44;28.38;;;20.88;;
51292;SDS011;37377;45.186;9.778;2023-04-29T05:26:12;25.48;;;19.13;;
51292;SDS011;37377;45.186;9.778;2023-04-29T05:28:39;28.75;;;21.38;;
51292;SDS011;37377;45.186;9.778;2023-04-29T05:31:10;31.80;;;22.25;;
51292;SDS011;37377;45.186;9.778;2023-04-29T05:33:38;36.72;;;22.65;;
51292;SDS011;37377;45.186;9.778;2023-04-29T05:36:05;33.00;;;23.02;;
51292;SDS011;37377;45.186;9.778;2023-04-29T05:38:33;34.22;;;23.20;;
51292;SDS011;37377;45.186;9.778;2023-04-29T05:41:02;32.22;;;23.33;;
51292;SDS011;37377;45.186;9.778;2023-04-29T05:43:44;24.88;;;22.10;;
51292;SDS011;37377;45.186;9.778;2023-04-29T05:46:13;27.85;;;22.85;;
51292;SDS011;37377;45.186;9.778;2023-04-29T05:48:42;33.15;;;23.20;;
51292;SDS011;37377;45.186;9.778;2023-04-29T05:51:11;34.55;;;24.58;;
51292;SDS011;37377;45.186;9.778;2023-04-29T05:53:39;32.05;;;23.80;;
51292;SDS011;37377;45.186;9.778;2023-04-29T05:56:07;32.83;;;23.92;;
51292;SDS011;37377;45.186;9.778;2023-04-29T05:58:35;35.85;;;25.17;;
51292;SDS011;37377;45.186;9.778;2023-04-29T06:01:14;39.70;;;26.70;;
51292;SDS011;37377;45.186;9.778;2023-04-29T06:03:44;33.45;;;26.25;;
51292;SDS011;37377;45.186;9.778;2023-04-29T06:06:26;29.77;;;22.77;;
51292;SDS011;37377;45.186;9.778;2023-04-29T06:09:13;36.80;;;24.30;;
51292;SDS011;37377;45.186;9.778;2023-04-29T06:11:56;33.00;;;24.17;;
51292;SDS011;37377;45.186;9.778;2023-04-29T06:14:23;37.03;;;24.13;;
51292;SDS011;37377;45.186;9.778;2023-04-29T06:16:51;28.58;;;23.67;;
51292;SDS011;37377;45.186;9.778;2023-04-29T06:19:19;33.15;;;24.13;;
51292;SDS011;37377;45.186;9.778;2023-04-29T06:21:47;34.33;;;25.85;;
51292;SDS011;37377;45.186;9.778;2023-04-29T06:24:14;29.38;;;24.95;;
51292;SDS011;37377;45.186;9.778;2023-04-29T06:26:41;34.58;;;25.33;;
51292;SDS011;37377;45.186;9.778;2023-04-29T06:29:09;38.42;;;24.48;;
51292;SDS011;37377;45.186;9.778;2023-04-29T06:31:36;30.52;;;22.02;;
51292;SDS011;37377;45.186;9.778;2023-04-29T06:34:04;26.38;;;21.40;;
51292;SDS011;37377;45.186;9.778;2023-04-29T06:36:35;49.53;;;22.80;;
51292;SDS011;37377;45.186;9.778;2023-04-29T06:39:45;28.50;;;19.95;;
51292;SDS011;37377;45.186;9.778;2023-04-29T06:42:17;35.67;;;19.48;;
51292;SDS011;37377;45.186;9.778;2023-04-29T06:45:11;25.33;;;18.45;;
51292;SDS011;37377;45.186;9.778;2023-04-29T06:47:42;23.33;;;18.45;;
51292;SDS011;37377;45.186;9.778;2023-04-29T06:50:24;31.63;;;18.10;;
51292;SDS011;37377;45.186;9.778;2023-04-29T06:53:48;23.63;;;18.98;;
51292;SDS011;37377;45.186;9.778;2023-04-29T06:56:21;35.75;;;18.92;;
51292;SDS011;37377;45.186;9.778;2023-04-29T06:58:52;33.08;;;21.02;;
51292;SDS011;37377;45.186;9.778;2023-04-29T07:01:22;26.23;;;19.92;;
51292;SDS011;37377;45.186;9.778;2023-04-29T07:03:52;31.73;;;20.90;;
51292;SDS011;37377;45.186;9.778;2023-04-29T07:06:19;40.08;;;22.27;;
51292;SDS011;37377;45.186;9.778;2023-04-29T07:08:58;32.65;;;22.42;;
51292;SDS011;37377;45.186;9.778;2023-04-29T07:13:16;29.75;;;22.13;;
51292;SDS011;37377;45.186;9.778;2023-04-29T07:17:01;27.33;;;22.88;;
51292;SDS011;37377;45.186;9.778;2023-04-29T07:20:50;35.38;;;22.27;;
51292;SDS011;37377;45.186;9.778;2023-04-29T07:26:13;33.17;;;23.13;;
51292;SDS011;37377;45.186;9.778;2023-04-29T07:28:47;29.90;;;22.83;;
51292;SDS011;37377;45.186;9.778;2023-04-29T07:31:16;31.73;;;22.50;;
51292;SDS011;37377;45.186;9.778;2023-04-29T07:33:44;33.17;;;23.70;;
51292;SDS011;37377;45.186;9.778;2023-04-29T07:36:15;37.42;;;25.98;;
51292;SDS011;37377;45.186;9.778;2023-04-29T07:38:42;37.03;;;25.15;;
51292;SDS011;37377;45.186;9.778;2023-04-29T07:41:10;28.63;;;23.40;;
51292;SDS011;37377;45.186;9.778;2023-04-29T07:43:41;30.50;;;23.95;;
51292;SDS011;37377;45.186;9.778;2023-04-29T07:46:08;35.13;;;25.10;;
51292;SDS011;37377;45.186;9.778;2023-04-29T07:48:39;30.58;;;25.58;;
51292;SDS011;37377;45.186;9.778;2023-04-29T07:51:11;34.05;;;26.88;;
51292;SDS011;37377;45.186;9.778;2023-04-29T07:53:39;38.58;;;26.58;;
51292;SDS011;37377;45.186;9.778;2023-04-29T07:56:07;34.90;;;25.60;;
51292;SDS011;37377;45.186;9.778;2023-04-29T07:58:35;31.65;;;24.05;;
51292;SDS011;37377;45.186;9.778;2023-04-29T08:01:06;31.77;;;25.02;;
51292;SDS011;37377;45.186;9.778;2023-04-29T08:03:37;35.35;;;25.27;;
51292;SDS011;37377;45.186;9.778;2023-04-29T08:06:12;31.17;;;25.50;;
51292;SDS011;37377;45.186;9.778;2023-04-29T08:08:44;31.30;;;26.45;;
51292;SDS011;37377;45.186;9.778;2023-04-29T08:11:19;36.95;;;26.95;;
51292;SDS011;37377;45.186;9.778;2023-04-29T08:13:56;34.28;;;25.75;;
51292;SDS011;37377;45.186;9.778;2023-04-29T08:16:25;29.38;;;24.30;;
51292;SDS011;37377;45.186;9.778;2023-04-29T08:18:52;33.08;;;25.27;;
51292;SDS011;37377;45.186;9.778;2023-04-29T08:21:20;32.03;;;27.17;;
51292;SDS011;37377;45.186;9.778;2023-04-29T08:23:47;27.52;;;24.60;;
51292;SDS011;37377;45.186;9.778;2023-04-29T08:26:14;28.83;;;23.45;;
51292;SDS011;37377;45.186;9.778;2023-04-29T08:28:41;28.95;;;22.73;;
51292;SDS011;37377;45.186;9.778;2023-04-29T08:31:15;31.10;;;23.92;;
51292;SDS011;37377;45.186;9.778;2023-04-29T08:33:42;30.15;;;23.85;;
51292;SDS011;37377;45.186;9.778;2023-04-29T08:36:12;28.15;;;21.15;;
51292;SDS011;37377;45.186;9.778;2023-04-29T08:38:39;24.50;;;21.55;;
51292;SDS011;37377;45.186;9.778;2023-04-29T08:41:07;26.15;;;22.90;;
51292;SDS011;37377;45.186;9.778;2023-04-29T08:43:35;23.45;;;21.00;;
51292;SDS011;37377;45.186;9.778;2023-04-29T08:46:09;28.10;;;21.02;;
51292;SDS011;37377;45.186;9.778;2023-04-29T08:48:37;27.52;;;20.90;;
51292;SDS011;37377;45.186;9.778;2023-04-29T08:51:11;27.35;;;18.27;;
51292;SDS011;37377;45.186;9.778;2023-04-29T08:53:39;24.02;;;17.27;;
51292;SDS011;37377;45.186;9.778;2023-04-29T08:56:12;27.13;;;18.92;;
51292;SDS011;37377;45.186;9.778;2023-04-29T08:58:47;24.60;;;16.58;;
51292;SDS011;37377;45.186;9.778;2023-04-29T09:01:20;23.77;;;15.73;;
51292;SDS011;37377;45.186;9.778;2023-04-29T09:03:49;17.05;;;15.30;;
51292;SDS011;37377;45.186;9.778;2023-04-29T09:06:21;17.87;;;14.83;;
51292;SDS011;37377;45.186;9.778;2023-04-29T09:08:48;17.40;;;14.77;;
51292;SDS011;37377;45.186;9.778;2023-04-29T09:11:16;23.10;;;12.40;;
51292;SDS011;37377;45.186;9.778;2023-04-29T09:13:44;16.70;;;11.35;;
51292;SDS011;37377;45.186;9.778;2023-04-29T09:16:11;15.73;;;12.05;;
51292;SDS011;37377;45.186;9.778;2023-04-29T09:22:27;22.02;;;15.05;;
51292;SDS011;37377;45.186;9.778;2023-04-29T09:25:16;48.22;;;34.47;;
51292;SDS011;37377;45.186;9.778;2023-04-29T09:27:43;24.90;;;18.20;;
51292;SDS011;37377;45.186;9.778;2023-04-29T09:30:11;17.35;;;14.18;;
51292;SDS011;37377;45.186;9.778;2023-04-29T09:32:39;24.88;;;14.45;;
51292;SDS011;37377;45.186;9.778;2023-04-29T09:38:07;15.85;;;13.77;;
51292;SDS011;37377;45.186;9.778;2023-04-29T09:40:35;19.30;;;15.27;;
51292;SDS011;37377;45.186;9.778;2023-04-29T09:43:16;16.63;;;14.68;;
51292;SDS011;37377;45.186;9.778;2023-04-29T09:45:47;20.65;;;13.57;;
51292;SDS011;37377;45.186;9.778;2023-04-29T09:48:17;19.75;;;12.88;;
51292;SDS011;37377;45.186;9.778;2023-04-29T09:50:45;19.98;;;13.30;;
51292;SDS011;37377;45.186;9.778;2023-04-29T09:53:28;19.27;;;13.57;;
51292;SDS011;37377;45.186;9.778;2023-04-29T09:56:02;20.85;;;14.40;;
51292;SDS011;37377;45.186;9.778;2023-04-29T09:58:31;20.25;;;14.45;;
51292;SDS011;37377;45.186;9.778;2023-04-29T10:01:03;18.02;;;13.77;;
51292;SDS011;37377;45.186;9.778;2023-04-29T10:03:34;19.50;;;13.82;;
51292;SDS011;37377;45.186;9.778;2023-04-29T10:06:03;18.58;;;13.68;;
51292;SDS011;37377;45.186;9.778;2023-04-29T10:08:31;21.17;;;13.07;;
51292;SDS011;37377;45.186;9.778;2023-04-29T10:11:00;21.75;;;12.48;;
51292;SDS011;37377;45.186;9.778;2023-04-29T10:13:28;20.48;;;12.30;;
51292;SDS011;37377;45.186;9.778;2023-04-29T10:18:41;14.73;;;13.02;;
51292;SDS011;37377;45.186;9.778;2023-04-29T10:21:09;15.23;;;13.18;;
51292;SDS011;37377;45.186;9.778;2023-04-29T10:23:37;18.77;;;12.85;;
51292;SDS011;37377;45.186;9.778;2023-04-29T10:26:09;15.30;;;12.60;;
51292;SDS011;37377;45.186;9.778;2023-04-29T10:28:38;17.90;;;12.48;;
51292;SDS011;37377;45.186;9.778;2023-04-29T10:31:07;28.85;;;13.63;;
51292;SDS011;37377;45.186;9.778;2023-04-29T10:33:35;20.02;;;12.40;;
51292;SDS011;37377;45.186;9.778;2023-04-29T10:36:05;18.42;;;12.45;;
51292;SDS011;37377;45.186;9.778;2023-04-29T11:02:01;13.65;;;12.25;;
51292;SDS011;37377;45.186;9.778;2023-04-29T11:04:29;13.70;;;12.30;;
51292;SDS011;37377;45.186;9.778;2023-04-29T11:06:56;16.33;;;13.15;;
51292;SDS011;37377;45.186;9.778;2023-04-29T11:18:29;21.08;;;13.13;;
51292;SDS011;37377;45.186;9.778;2023-04-29T11:22:36;18.73;;;13.70;;
51292;SDS011;37377;45.186;9.778;2023-04-29T11:48:53;20.23;;;14.10;;
51292;SDS011;37377;45.186;9.778;2023-04-29T11:51:30;16.15;;;14.65;;
51292;SDS011;37377;45.186;9.778;2023-04-29T11:54:25;17.83;;;15.85;;
51292;SDS011;37377;45.186;9.778;2023-04-29T11:57:02;16.27;;;14.35;;
51292;SDS011;37377;45.186;9.778;2023-04-29T11:59:30;16.48;;;12.90;;
51292;SDS011;37377;45.186;9.778;2023-04-29T12:02:02;14.45;;;12.95;;
51292;SDS011;37377;45.186;9.778;2023-04-29T12:08:05;23.40;;;13.50;;
51292;SDS011;37377;45.186;9.778;2023-04-29T12:10:35;16.75;;;13.20;;
51292;SDS011;37377;45.186;9.778;2023-04-29T12:13:08;17.90;;;13.15;;
51292;SDS011;37377;45.186;9.778;2023-04-29T12:15:36;16.65;;;13.43;;
51292;SDS011;37377;45.186;9.778;2023-04-29T12:18:06;14.73;;;12.85;;
51292;SDS011;37377;45.186;9.778;2023-04-29T12:20:35;19.08;;;13.30;;
51292;SDS011;37377;45.186;9.778;2023-04-29T12:24:28;15.05;;;12.27;;
51292;SDS011;37377;45.186;9.778;2023-04-29T12:37:17;20.98;;;12.77;;
51292;SDS011;37377;45.186;9.778;2023-04-29T12:40:12;21.02;;;13.30;;
51292;SDS011;37377;45.186;9.778;2023-04-29T12:46:17;21.10;;;12.57;;
51292;SDS011;37377;45.186;9.778;2023-04-29T12:48:46;18.92;;;13.20;;
51292;SDS011;37377;45.186;9.778;2023-04-29T12:52:08;21.20;;;12.25;;
51292;SDS011;37377;45.186;9.778;2023-04-29T12:54:36;20.05;;;12.95;;
51292;SDS011;37377;45.186;9.778;2023-04-29T12:57:05;15.25;;;12.10;;
51292;SDS011;37377;45.186;9.778;2023-04-29T12:59:32;18.52;;;12.85;;
51292;SDS011;37377;45.186;9.778;2023-04-29T13:01:59;16.95;;;11.13;;
51292;SDS011;37377;45.186;9.778;2023-04-29T13:04:27;14.10;;;12.43;;
51292;SDS011;37377;45.186;9.778;2023-04-29T13:06:54;16.92;;;11.90;;
51292;SDS011;37377;45.186;9.778;2023-04-29T13:09:47;15.23;;;12.30;;
51292;SDS011;37377;45.186;9.778;2023-04-29T13:13:04;16.58;;;12.75;;
51292;SDS011;37377;45.186;9.778;2023-04-29T13:17:09;15.48;;;13.57;;
51292;SDS011;37377;45.186;9.778;2023-04-29T13:19:36;17.08;;;12.60;;
51292;SDS011;37377;45.186;9.778;2023-04-29T13:22:16;13.20;;;11.77;;
51292;SDS011;37377;45.186;9.778;2023-04-29T13:24:43;17.25;;;11.77;;
51292;SDS011;37377;45.186;9.778;2023-04-29T13:27:10;17.42;;;11.23;;
51292;SDS011;37377;45.186;9.778;2023-04-29T13:29:37;20.23;;;11.45;;
51292;SDS011;37377;45.186;9.778;2023-04-29T13:32:08;16.02;;;12.43;;
51292;SDS011;37377;45.186;9.778;2023-04-29T13:34:41;18.27;;;12.88;;
51292;SDS011;37377;45.186;9.778;2023-04-29T13:37:25;18.25;;;13.20;;
51292;SDS011;37377;45.186;9.778;2023-04-29T13:39:58;17.23;;;13.88;;
51292;SDS011;37377;45.186;9.778;2023-04-29T13:42:25;15.38;;;13.88;;
51292;SDS011;37377;45.186;9.778;2023-04-29T13:44:55;17.48;;;13.80;;
51292;SDS011;37377;45.186;9.778;2023-04-29T13:47:25;17.75;;;13.13;;
51292;SDS011;37377;45.186;9.778;2023-04-29T13:50:15;14.20;;;12.73;;
51292;SDS011;37377;45.186;9.778;2023-04-29T13:53:05;20.13;;;14.48;;
51292;SDS011;37377;45.186;9.778;2023-04-29T13:55:37;20.42;;;14.00;;
51292;SDS011;37377;45.186;9.778;2023-04-29T13:58:15;23.05;;;14.25;;
51292;SDS011;37377;45.186;9.778;2023-04-29T14:00:56;16.17;;;13.32;;
51292;SDS011;37377;45.186;9.778;2023-04-29T14:03:29;18.93;;;13.30;;
51292;SDS011;37377;45.186;9.778;2023-04-29T14:06:00;17.45;;;14.10;;
51292;SDS011;37377;45.186;9.778;2023-04-29T14:08:28;19.02;;;16.05;;
51292;SDS011;37377;45.186;9.778;2023-04-29T14:10:59;25.63;;;18.10;;
51292;SDS011;37377;45.186;9.778;2023-04-29T14:13:26;21.08;;;18.77;;
51292;SDS011;37377;45.186;9.778;2023-04-29T14:16:01;28.80;;;19.08;;
51292;SDS011;37377;45.186;9.778;2023-04-29T14:18:34;21.45;;;15.45;;
51292;SDS011;37377;45.186;9.778;2023-04-29T14:21:30;19.67;;;16.60;;
51292;SDS011;37377;45.186;9.778;2023-04-29T14:23:59;22.40;;;18.75;;
51292;SDS011;37377;45.186;9.778;2023-04-29T14:26:28;21.40;;;17.20;;
51292;SDS011;37377;45.186;9.778;2023-04-29T14:28:56;21.02;;;17.20;;
51292;SDS011;37377;45.186;9.778;2023-04-29T14:31:27;27.92;;;19.90;;
51292;SDS011;37377;45.186;9.778;2023-04-29T14:33:55;24.15;;;19.35;;
51292;SDS011;37377;45.186;9.778;2023-04-29T14:36:22;29.35;;;20.17;;
51292;SDS011;37377;45.186;9.778;2023-04-29T14:38:49;25.13;;;20.67;;
51292;SDS011;37377;45.186;9.778;2023-04-29T14:41:15;26.10;;;21.23;;
51292;SDS011;37377;45.186;9.778;2023-04-29T14:43:42;23.70;;;20.20;;
51292;SDS011;37377;45.186;9.778;2023-04-29T14:46:10;24.75;;;21.48;;
51292;SDS011;37377;45.186;9.778;2023-04-29T14:48:37;37.90;;;26.33;;
51292;SDS011;37377;45.186;9.778;2023-04-29T14:51:04;28.52;;;24.48;;
51292;SDS011;37377;45.186;9.778;2023-04-29T14:53:33;29.95;;;25.25;;
51292;SDS011;37377;45.186;9.778;2023-04-29T14:56:00;32.88;;;25.23;;
51292;SDS011;37377;45.186;9.778;2023-04-29T14:58:27;33.13;;;23.98;;
51292;SDS011;37377;45.186;9.778;2023-04-29T15:00:57;33.00;;;23.40;;
51292;SDS011;37377;45.186;9.778;2023-04-29T15:03:24;27.02;;;23.08;;
51292;SDS011;37377;45.186;9.778;2023-04-29T15:05:51;27.95;;;22.30;;
51292;SDS011;37377;45.186;9.778;2023-04-29T15:08:18;28.40;;;23.00;;
51292;SDS011;37377;45.186;9.778;2023-04-29T15:10:45;27.13;;;23.88;;
51292;SDS011;37377;45.186;9.778;2023-04-29T15:13:13;33.88;;;23.83;;
51292;SDS011;37377;45.186;9.778;2023-04-29T15:15:40;29.10;;;22.92;;
51292;SDS011;37377;45.186;9.778;2023-04-29T15:18:07;31.83;;;22.50;;
51292;SDS011;37377;45.186;9.778;2023-04-29T15:20:35;28.77;;;22.27;;
51292;SDS011;37377;45.186;9.778;2023-04-29T15:23:11;27.63;;;22.80;;
51292;SDS011;37377;45.186;9.778;2023-04-29T15:25:38;29.60;;;22.02;;
51292;SDS011;37377;45.186;9.778;2023-04-29T15:28:06;31.67;;;22.77;;
51292;SDS011;37377;45.186;9.778;2023-04-29T15:30:39;33.85;;;20.58;;
51292;SDS011;37377;45.186;9.778;2023-04-29T15:33:08;28.25;;;20.38;;
51292;SDS011;37377;45.186;9.778;2023-04-29T15:35:35;31.10;;;20.55;;
51292;SDS011;37377;45.186;9.778;2023-04-29T15:38:02;28.15;;;20.98;;
51292;SDS011;37377;45.186;9.778;2023-04-29T15:40:29;26.42;;;20.77;;
51292;SDS011;37377;45.186;9.778;2023-04-29T15:42:56;33.50;;;21.08;;
51292;SDS011;37377;45.186;9.778;2023-04-29T15:45:23;40.45;;;20.90;;
51292;SDS011;37377;45.186;9.778;2023-04-29T15:47:50;27.80;;;19.67;;
51292;SDS011;37377;45.186;9.778;2023-04-29T15:50:18;22.70;;;18.02;;
51292;SDS011;37377;45.186;9.778;2023-04-29T15:52:45;30.85;;;17.35;;
51292;SDS011;37377;45.186;9.778;2023-04-29T15:55:12;33.78;;;19.95;;
51292;SDS011;37377;45.186;9.778;2023-04-29T15:57:39;24.92;;;18.13;;
51292;SDS011;37377;45.186;9.778;2023-04-29T16:00:07;22.70;;;18.45;;
51292;SDS011;37377;45.186;9.778;2023-04-29T16:02:35;25.17;;;18.95;;
51292;SDS011;37377;45.186;9.778;2023-04-29T16:05:02;37.92;;;19.55;;
51292;SDS011;37377;45.186;9.778;2023-04-29T16:07:29;24.02;;;18.73;;
51292;SDS011;37377;45.186;9.778;2023-04-29T16:09:56;25.23;;;19.58;;
51292;SDS011;37377;45.186;9.778;2023-04-29T16:12:23;23.90;;;19.90;;
51292;SDS011;37377;45.186;9.778;2023-04-29T16:14:51;30.38;;;18.55;;
51292;SDS011;37377;45.186;9.778;2023-04-29T16:17:18;28.92;;;17.27;;
51292;SDS011;37377;45.186;9.778;2023-04-29T16:19:45;32.67;;;17.35;;
51292;SDS011;37377;45.186;9.778;2023-04-29T16:22:12;29.38;;;17.63;;
51292;SDS011;37377;45.186;9.778;2023-04-29T16:24:39;32.95;;;17.70;;
51292;SDS011;37377;45.186;9.778;2023-04-29T16:27:05;24.95;;;15.90;;
51292;SDS011;37377;45.186;9.778;2023-04-29T16:29:32;22.67;;;15.98;;